sensor_id;sensor_type;location;lat;lon;timestamp;temperature;humidity
22173;DHT22;11252;50.596;17.648;2023-08-01T00:00:12;18.90;92.20
22173;DHT22;11252;50.596;17.648;2023-08-01T00:02:39;18.90;92.20
22173;DHT22;11252;50.596;17.648;2023-08-01T00:05:09;18.90;92.20
22173;DHT22;11252;50.596;17.648;2023-08-01T00:07:37;18.90;92.20
22173;DHT22;11252;50.596;17.648;2023-08-01T00:10:04;18.90;92.20
22173;DHT22;11252;50.596;17.648;2023-08-01T00:12:31;18.90;92.20
22173;DHT22;11252;50.596;17.648;2023-08-01T00:14:58;18.90;92.20
22173;DHT22;11252;50.596;17.648;2023-08-01T00:17:25;18.80;92.20
22173;DHT22;11252;50.596;17.648;2023-08-01T00:19:52;18.80;92.20
22173;DHT22;11252;50.596;17.648;2023-08-01T00:22:23;18.80;92.20
22173;DHT22;11252;50.596;17.648;2023-08-01T00:24:50;18.70;92.20
22173;DHT22;11252;50.596;17.648;2023-08-01T00:27:16;18.70;92.20
22173;DHT22;11252;50.596;17.648;2023-08-01T00:29:44;18.60;92.20
22173;DHT22;11252;50.596;17.648;2023-08-01T00:32:11;18.50;92.20
22173;DHT22;11252;50.596;17.648;2023-08-01T00:34:39;18.50;92.20
22173;DHT22;11252;50.596;17.648;2023-08-01T00:37:05;18.50;92.20
22173;DHT22;11252;50.596;17.648;2023-08-01T00:39:33;18.50;92.20
22173;DHT22;11252;50.596;17.648;2023-08-01T00:42:00;18.40;92.20
22173;DHT22;11252;50.596;17.648;2023-08-01T00:44:27;18.40;92.20
22173;DHT22;11252;50.596;17.648;2023-08-01T00:46:54;18.40;92.20
22173;DHT22;11252;50.596;17.648;2023-08-01T00:49:21;18.40;92.20
22173;DHT22;11252;50.596;17.648;2023-08-01T00:51:48;18.30;92.20
22173;DHT22;11252;50.596;17.648;2023-08-01T00:54:15;18.30;92.20
22173;DHT22;11252;50.596;17.648;2023-08-01T00:56:43;18.30;92.20
22173;DHT22;11252;50.596;17.648;2023-08-01T00:59:12;18.30;92.20
22173;DHT22;11252;50.596;17.648;2023-08-01T01:01:39;18.20;92.20
22173;DHT22;11252;50.596;17.648;2023-08-01T01:04:06;18.20;92.20
22173;DHT22;11252;50.596;17.648;2023-08-01T01:06:48;18.20;92.20
22173;DHT22;11252;50.596;17.648;2023-08-01T01:09:18;18.10;92.20
22173;DHT22;11252;50.596;17.648;2023-08-01T01:11:46;18.10;92.20
22173;DHT22;11252;50.596;17.648;2023-08-01T01:14:13;18.10;92.20
22173;DHT22;11252;50.596;17.648;2023-08-01T01:16:40;18.20;92.20
22173;DHT22;11252;50.596;17.648;2023-08-01T01:19:09;18.20;92.20
22173;DHT22;11252;50.596;17.648;2023-08-01T01:24:44;18.10;92.20
22173;DHT22;11252;50.596;17.648;2023-08-01T01:27:12;18.10;92.20
22173;DHT22;11252;50.596;17.648;2023-08-01T01:29:40;18.10;92.20
22173;DHT22;11252;50.596;17.648;2023-08-01T01:32:09;18.10;92.20
22173;DHT22;11252;50.596;17.648;2023-08-01T01:34:36;18.00;92.20
22173;DHT22;11252;50.596;17.648;2023-08-01T01:37:03;18.00;92.20
22173;DHT22;11252;50.596;17.648;2023-08-01T01:39:30;17.90;92.20
22173;DHT22;11252;50.596;17.648;2023-08-01T01:41:57;17.90;92.20
22173;DHT22;11252;50.596;17.648;2023-08-01T01:44:24;17.90;92.20
22173;DHT22;11252;50.596;17.648;2023-08-01T01:46:51;18.00;92.20
22173;DHT22;11252;50.596;17.648;2023-08-01T01:49:18;18.00;92.20
22173;DHT22;11252;50.596;17.648;2023-08-01T01:51:45;18.00;92.20
22173;DHT22;11252;50.596;17.648;2023-08-01T01:54:12;18.00;92.20
22173;DHT22;11252;50.596;17.648;2023-08-01T01:56:39;18.00;92.20
22173;DHT22;11252;50.596;17.648;2023-08-01T01:59:06;17.90;92.20
22173;DHT22;11252;50.596;17.648;2023-08-01T02:01:34;17.90;92.20
22173;DHT22;11252;50.596;17.648;2023-08-01T02:04:01;17.90;92.20
22173;DHT22;11252;50.596;17.648;2023-08-01T02:06:29;17.90;92.20
22173;DHT22;11252;50.596;17.648;2023-08-01T02:08:56;17.90;92.20
22173;DHT22;11252;50.596;17.648;2023-08-01T02:11:23;18.00;92.20
22173;DHT22;11252;50.596;17.648;2023-08-01T02:13:50;17.90;92.20
22173;DHT22;11252;50.596;17.648;2023-08-01T02:16:17;17.90;92.20
22173;DHT22;11252;50.596;17.648;2023-08-01T02:18:44;17.80;92.20
22173;DHT22;11252;50.596;17.648;2023-08-01T02:21:10;17.80;92.20
22173;DHT22;11252;50.596;17.648;2023-08-01T02:23:38;17.80;92.20
22173;DHT22;11252;50.596;17.648;2023-08-01T02:26:04;17.70;92.20
22173;DHT22;11252;50.596;17.648;2023-08-01T02:28:32;17.70;92.20
22173;DHT22;11252;50.596;17.648;2023-08-01T02:30:59;17.70;92.20
22173;DHT22;11252;50.596;17.648;2023-08-01T02:33:26;17.70;92.20
22173;DHT22;11252;50.596;17.648;2023-08-01T02:35:53;17.80;92.20
22173;DHT22;11252;50.596;17.648;2023-08-01T02:38:20;17.80;92.20
22173;DHT22;11252;50.596;17.648;2023-08-01T02:40:47;17.80;92.20
22173;DHT22;11252;50.596;17.648;2023-08-01T02:43:14;17.80;92.20
22173;DHT22;11252;50.596;17.648;2023-08-01T02:45:42;17.80;92.20
22173;DHT22;11252;50.596;17.648;2023-08-01T02:48:09;17.80;92.20
22173;DHT22;11252;50.596;17.648;2023-08-01T02:50:36;17.90;92.20
22173;DHT22;11252;50.596;17.648;2023-08-01T02:53:04;17.90;92.20
22173;DHT22;11252;50.596;17.648;2023-08-01T02:55:31;17.90;92.20
22173;DHT22;11252;50.596;17.648;2023-08-01T02:57:58;17.90;92.20
22173;DHT22;11252;50.596;17.648;2023-08-01T03:00:25;17.90;92.20
22173;DHT22;11252;50.596;17.648;2023-08-01T03:02:52;17.90;92.20
22173;DHT22;11252;50.596;17.648;2023-08-01T03:05:19;17.90;92.20
22173;DHT22;11252;50.596;17.648;2023-08-01T03:07:46;17.90;92.20
22173;DHT22;11252;50.596;17.648;2023-08-01T03:10:13;17.90;92.20
22173;DHT22;11252;50.596;17.648;2023-08-01T03:13:01;17.90;92.20
22173;DHT22;11252;50.596;17.648;2023-08-01T03:15:28;17.90;92.20
22173;DHT22;11252;50.596;17.648;2023-08-01T03:17:55;17.90;92.20
22173;DHT22;11252;50.596;17.648;2023-08-01T03:20:22;17.90;92.20
22173;DHT22;11252;50.596;17.648;2023-08-01T03:22:50;17.90;92.20
22173;DHT22;11252;50.596;17.648;2023-08-01T03:25:17;17.90;92.20
22173;DHT22;11252;50.596;17.648;2023-08-01T03:27:44;17.90;92.20
22173;DHT22;11252;50.596;17.648;2023-08-01T03:30:11;17.90;92.20
22173;DHT22;11252;50.596;17.648;2023-08-01T03:32:39;17.90;92.20
22173;DHT22;11252;50.596;17.648;2023-08-01T03:35:07;17.90;92.20
22173;DHT22;11252;50.596;17.648;2023-08-01T03:37:34;17.90;92.20
22173;DHT22;11252;50.596;17.648;2023-08-01T03:40:00;17.90;92.20
22173;DHT22;11252;50.596;17.648;2023-08-01T03:42:27;18.00;92.20
22173;DHT22;11252;50.596;17.648;2023-08-01T03:44:54;17.90;92.20
22173;DHT22;11252;50.596;17.648;2023-08-01T03:47:21;17.90;92.20
22173;DHT22;11252;50.596;17.648;2023-08-01T03:49:48;18.00;92.20
22173;DHT22;11252;50.596;17.648;2023-08-01T03:52:15;18.00;92.20
22173;DHT22;11252;50.596;17.648;2023-08-01T03:54:42;17.90;92.20
22173;DHT22;11252;50.596;17.648;2023-08-01T03:57:09;17.80;92.20
22173;DHT22;11252;50.596;17.648;2023-08-01T03:59:37;17.70;92.20
22173;DHT22;11252;50.596;17.648;2023-08-01T04:02:04;17.70;92.20
22173;DHT22;11252;50.596;17.648;2023-08-01T04:04:31;17.70;92.20
22173;DHT22;11252;50.596;17.648;2023-08-01T04:06:58;17.70;92.20
22173;DHT22;11252;50.596;17.648;2023-08-01T04:09:25;17.80;92.20
22173;DHT22;11252;50.596;17.648;2023-08-01T04:11:52;17.70;92.20
22173;DHT22;11252;50.596;17.648;2023-08-01T04:14:19;17.70;92.20
22173;DHT22;11252;50.596;17.648;2023-08-01T04:16:46;17.70;92.20
22173;DHT22;11252;50.596;17.648;2023-08-01T04:19:13;17.80;92.20
22173;DHT22;11252;50.596;17.648;2023-08-01T04:21:39;17.70;92.20
22173;DHT22;11252;50.596;17.648;2023-08-01T04:24:06;17.60;92.20
22173;DHT22;11252;50.596;17.648;2023-08-01T04:26:33;17.70;92.20
22173;DHT22;11252;50.596;17.648;2023-08-01T04:29:00;17.70;92.20
22173;DHT22;11252;50.596;17.648;2023-08-01T04:31:27;17.60;92.20
22173;DHT22;11252;50.596;17.648;2023-08-01T04:33:55;17.60;92.20
22173;DHT22;11252;50.596;17.648;2023-08-01T04:36:23;17.60;92.20
22173;DHT22;11252;50.596;17.648;2023-08-01T04:38:50;17.60;92.20
22173;DHT22;11252;50.596;17.648;2023-08-01T04:41:17;17.50;92.20
22173;DHT22;11252;50.596;17.648;2023-08-01T04:43:44;17.50;92.20
22173;DHT22;11252;50.596;17.648;2023-08-01T04:46:11;17.40;92.20
22173;DHT22;11252;50.596;17.648;2023-08-01T04:48:41;17.50;92.20
22173;DHT22;11252;50.596;17.648;2023-08-01T04:51:09;17.50;92.20
22173;DHT22;11252;50.596;17.648;2023-08-01T04:53:36;17.40;92.20
22173;DHT22;11252;50.596;17.648;2023-08-01T04:56:03;17.50;92.20
22173;DHT22;11252;50.596;17.648;2023-08-01T04:58:30;17.40;92.20
22173;DHT22;11252;50.596;17.648;2023-08-01T05:00:57;17.50;92.20
22173;DHT22;11252;50.596;17.648;2023-08-01T05:03:24;17.40;92.20
22173;DHT22;11252;50.596;17.648;2023-08-01T05:05:51;17.50;92.20
22173;DHT22;11252;50.596;17.648;2023-08-01T05:08:18;17.50;92.20
22173;DHT22;11252;50.596;17.648;2023-08-01T05:10:45;17.60;92.20
22173;DHT22;11252;50.596;17.648;2023-08-01T05:13:12;17.60;92.20
22173;DHT22;11252;50.596;17.648;2023-08-01T05:15:38;17.70;92.20
22173;DHT22;11252;50.596;17.648;2023-08-01T05:18:05;17.70;92.20
22173;DHT22;11252;50.596;17.648;2023-08-01T05:20:32;17.80;92.20
22173;DHT22;11252;50.596;17.648;2023-08-01T05:23:00;17.80;92.20
22173;DHT22;11252;50.596;17.648;2023-08-01T05:25:27;17.80;92.20
22173;DHT22;11252;50.596;17.648;2023-08-01T05:27:54;17.80;92.20
22173;DHT22;11252;50.596;17.648;2023-08-01T05:30:21;18.00;92.20
22173;DHT22;11252;50.596;17.648;2023-08-01T05:32:48;18.00;92.20
22173;DHT22;11252;50.596;17.648;2023-08-01T05:35:15;17.90;92.20
22173;DHT22;11252;50.596;17.648;2023-08-01T05:37:42;17.90;92.20
22173;DHT22;11252;50.596;17.648;2023-08-01T05:40:10;17.90;92.20
22173;DHT22;11252;50.596;17.648;2023-08-01T05:42:40;17.90;92.20
22173;DHT22;11252;50.596;17.648;2023-08-01T05:45:08;18.00;92.20
22173;DHT22;11252;50.596;17.648;2023-08-01T05:47:35;18.00;92.20
22173;DHT22;11252;50.596;17.648;2023-08-01T05:50:10;17.90;92.20
22173;DHT22;11252;50.596;17.648;2023-08-01T05:52:42;18.00;92.20
22173;DHT22;11252;50.596;17.648;2023-08-01T05:55:21;17.90;92.20
22173;DHT22;11252;50.596;17.648;2023-08-01T05:57:48;17.90;92.20
22173;DHT22;11252;50.596;17.648;2023-08-01T06:00:19;17.90;92.20
22173;DHT22;11252;50.596;17.648;2023-08-01T06:02:50;17.90;92.20
22173;DHT22;11252;50.596;17.648;2023-08-01T06:05:17;17.90;92.20
22173;DHT22;11252;50.596;17.648;2023-08-01T06:07:44;18.00;92.20
22173;DHT22;11252;50.596;17.648;2023-08-01T06:10:11;18.00;92.20
22173;DHT22;11252;50.596;17.648;2023-08-01T06:12:37;18.00;92.20
22173;DHT22;11252;50.596;17.648;2023-08-01T06:15:05;18.00;92.20
22173;DHT22;11252;50.596;17.648;2023-08-01T06:17:32;17.90;92.20
22173;DHT22;11252;50.596;17.648;2023-08-01T06:19:59;18.00;92.20
22173;DHT22;11252;50.596;17.648;2023-08-01T06:22:26;18.00;92.20
22173;DHT22;11252;50.596;17.648;2023-08-01T06:24:53;17.90;92.20
22173;DHT22;11252;50.596;17.648;2023-08-01T06:27:20;17.90;92.20
22173;DHT22;11252;50.596;17.648;2023-08-01T06:29:47;17.90;92.20
22173;DHT22;11252;50.596;17.648;2023-08-01T06:32:14;17.80;92.20
22173;DHT22;11252;50.596;17.648;2023-08-01T06:34:40;17.90;92.20
22173;DHT22;11252;50.596;17.648;2023-08-01T06:37:07;17.90;92.20
22173;DHT22;11252;50.596;17.648;2023-08-01T06:39:34;17.90;92.20
22173;DHT22;11252;50.596;17.648;2023-08-01T06:42:01;18.00;92.20
22173;DHT22;11252;50.596;17.648;2023-08-01T06:44:28;18.00;92.20
22173;DHT22;11252;50.596;17.648;2023-08-01T06:46:55;18.10;92.20
22173;DHT22;11252;50.596;17.648;2023-08-01T06:49:22;18.10;92.20
22173;DHT22;11252;50.596;17.648;2023-08-01T06:51:49;18.20;92.20
22173;DHT22;11252;50.596;17.648;2023-08-01T06:54:16;18.20;92.20
22173;DHT22;11252;50.596;17.648;2023-08-01T06:56:43;18.20;92.20
22173;DHT22;11252;50.596;17.648;2023-08-01T06:59:14;18.30;92.20
22173;DHT22;11252;50.596;17.648;2023-08-01T07:01:42;18.20;92.20
22173;DHT22;11252;50.596;17.648;2023-08-01T07:04:11;18.30;92.20
22173;DHT22;11252;50.596;17.648;2023-08-01T07:06:39;18.30;92.20
22173;DHT22;11252;50.596;17.648;2023-08-01T07:09:06;18.40;92.20
22173;DHT22;11252;50.596;17.648;2023-08-01T07:11:33;18.50;92.20
22173;DHT22;11252;50.596;17.648;2023-08-01T07:14:00;18.50;92.20
22173;DHT22;11252;50.596;17.648;2023-08-01T07:16:29;18.50;92.20
22173;DHT22;11252;50.596;17.648;2023-08-01T07:19:01;18.50;92.20
22173;DHT22;11252;50.596;17.648;2023-08-01T07:21:27;18.60;92.20
22173;DHT22;11252;50.596;17.648;2023-08-01T07:23:55;18.70;92.20
22173;DHT22;11252;50.596;17.648;2023-08-01T07:26:24;18.70;92.20
22173;DHT22;11252;50.596;17.648;2023-08-01T07:28:51;18.70;92.20
22173;DHT22;11252;50.596;17.648;2023-08-01T07:31:18;18.70;92.20
22173;DHT22;11252;50.596;17.648;2023-08-01T07:33:45;18.70;92.20
22173;DHT22;11252;50.596;17.648;2023-08-01T07:36:12;18.80;92.20
22173;DHT22;11252;50.596;17.648;2023-08-01T07:38:39;18.80;92.20
22173;DHT22;11252;50.596;17.648;2023-08-01T07:41:06;18.80;92.20
22173;DHT22;11252;50.596;17.648;2023-08-01T07:43:34;18.90;92.20
22173;DHT22;11252;50.596;17.648;2023-08-01T07:46:01;18.90;92.20
22173;DHT22;11252;50.596;17.648;2023-08-01T07:48:28;18.90;92.20
22173;DHT22;11252;50.596;17.648;2023-08-01T07:50:55;19.00;92.20
22173;DHT22;11252;50.596;17.648;2023-08-01T07:53:22;19.10;92.20
22173;DHT22;11252;50.596;17.648;2023-08-01T07:55:49;19.10;92.20
22173;DHT22;11252;50.596;17.648;2023-08-01T07:58:16;19.20;92.20
22173;DHT22;11252;50.596;17.648;2023-08-01T08:00:43;19.20;92.20
22173;DHT22;11252;50.596;17.648;2023-08-01T08:03:11;19.40;92.20
22173;DHT22;11252;50.596;17.648;2023-08-01T08:05:37;19.50;92.20
22173;DHT22;11252;50.596;17.648;2023-08-01T08:08:06;19.60;92.20
22173;DHT22;11252;50.596;17.648;2023-08-01T08:10:33;19.60;92.20
22173;DHT22;11252;50.596;17.648;2023-08-01T08:13:00;19.70;92.20
22173;DHT22;11252;50.596;17.648;2023-08-01T08:15:27;19.70;92.20
22173;DHT22;11252;50.596;17.648;2023-08-01T08:18:01;19.80;92.20
22173;DHT22;11252;50.596;17.648;2023-08-01T08:20:31;19.90;92.20
22173;DHT22;11252;50.596;17.648;2023-08-01T08:23:01;19.90;92.20
22173;DHT22;11252;50.596;17.648;2023-08-01T08:25:28;19.90;92.20
22173;DHT22;11252;50.596;17.648;2023-08-01T08:27:55;20.00;92.20
22173;DHT22;11252;50.596;17.648;2023-08-01T08:30:22;20.00;92.20
22173;DHT22;11252;50.596;17.648;2023-08-01T08:32:50;20.10;92.20
22173;DHT22;11252;50.596;17.648;2023-08-01T08:35:18;20.20;92.20
22173;DHT22;11252;50.596;17.648;2023-08-01T08:37:49;20.20;92.20
22173;DHT22;11252;50.596;17.648;2023-08-01T08:40:15;20.20;92.20
22173;DHT22;11252;50.596;17.648;2023-08-01T08:42:46;20.20;92.20
22173;DHT22;11252;50.596;17.648;2023-08-01T08:45:18;20.20;92.20
22173;DHT22;11252;50.596;17.648;2023-08-01T08:47:49;20.20;92.20
22173;DHT22;11252;50.596;17.648;2023-08-01T08:50:20;20.30;92.20
22173;DHT22;11252;50.596;17.648;2023-08-01T08:52:47;20.30;92.20
22173;DHT22;11252;50.596;17.648;2023-08-01T08:55:15;20.30;92.20
22173;DHT22;11252;50.596;17.648;2023-08-01T08:57:42;20.30;92.20
22173;DHT22;11252;50.596;17.648;2023-08-01T09:00:11;20.30;92.20
22173;DHT22;11252;50.596;17.648;2023-08-01T09:02:39;20.30;92.20
22173;DHT22;11252;50.596;17.648;2023-08-01T09:05:06;20.30;92.20
22173;DHT22;11252;50.596;17.648;2023-08-01T09:07:33;20.30;92.20
22173;DHT22;11252;50.596;17.648;2023-08-01T09:10:01;20.30;92.20
22173;DHT22;11252;50.596;17.648;2023-08-01T09:12:28;20.30;92.20
22173;DHT22;11252;50.596;17.648;2023-08-01T09:15:00;20.30;92.20
22173;DHT22;11252;50.596;17.648;2023-08-01T09:17:27;20.30;92.20
22173;DHT22;11252;50.596;17.648;2023-08-01T09:20:05;20.20;92.20
22173;DHT22;11252;50.596;17.648;2023-08-01T09:22:42;20.20;92.20
22173;DHT22;11252;50.596;17.648;2023-08-01T09:25:10;20.20;92.20
22173;DHT22;11252;50.596;17.648;2023-08-01T09:27:37;20.30;92.20
22173;DHT22;11252;50.596;17.648;2023-08-01T09:30:11;20.30;92.20
22173;DHT22;11252;50.596;17.648;2023-08-01T09:32:40;20.30;92.20
22173;DHT22;11252;50.596;17.648;2023-08-01T09:35:07;20.30;92.20
22173;DHT22;11252;50.596;17.648;2023-08-01T09:37:42;20.30;92.20
22173;DHT22;11252;50.596;17.648;2023-08-01T09:40:10;20.30;92.20
22173;DHT22;11252;50.596;17.648;2023-08-01T09:42:42;20.40;92.20
22173;DHT22;11252;50.596;17.648;2023-08-01T09:45:16;20.40;92.20
22173;DHT22;11252;50.596;17.648;2023-08-01T09:47:44;20.50;92.20
22173;DHT22;11252;50.596;17.648;2023-08-01T09:50:20;20.50;92.20
22173;DHT22;11252;50.596;17.648;2023-08-01T09:52:48;20.60;92.20
22173;DHT22;11252;50.596;17.648;2023-08-01T09:55:31;20.60;92.20
22173;DHT22;11252;50.596;17.648;2023-08-01T09:57:59;20.70;92.20
22173;DHT22;11252;50.596;17.648;2023-08-01T10:00:27;20.80;92.20
22173;DHT22;11252;50.596;17.648;2023-08-01T10:02:58;20.90;92.20
22173;DHT22;11252;50.596;17.648;2023-08-01T10:05:32;20.90;92.20
22173;DHT22;11252;50.596;17.648;2023-08-01T10:08:02;20.90;92.20
22173;DHT22;11252;50.596;17.648;2023-08-01T10:10:30;20.80;92.20
22173;DHT22;11252;50.596;17.648;2023-08-01T10:12:57;20.70;92.20
22173;DHT22;11252;50.596;17.648;2023-08-01T10:15:24;20.60;92.20
22173;DHT22;11252;50.596;17.648;2023-08-01T10:17:52;20.50;92.20
22173;DHT22;11252;50.596;17.648;2023-08-01T10:20:21;20.50;92.20
22173;DHT22;11252;50.596;17.648;2023-08-01T10:22:52;20.40;92.20
22173;DHT22;11252;50.596;17.648;2023-08-01T10:25:19;20.30;92.20
22173;DHT22;11252;50.596;17.648;2023-08-01T10:28:01;20.30;92.20
22173;DHT22;11252;50.596;17.648;2023-08-01T10:30:29;20.40;92.20
22173;DHT22;11252;50.596;17.648;2023-08-01T10:32:57;20.40;92.20
22173;DHT22;11252;50.596;17.648;2023-08-01T10:35:38;20.40;92.20
22173;DHT22;11252;50.596;17.648;2023-08-01T10:38:12;20.40;92.20
22173;DHT22;11252;50.596;17.648;2023-08-01T10:40:42;20.40;92.20
22173;DHT22;11252;50.596;17.648;2023-08-01T10:43:22;20.40;92.20
22173;DHT22;11252;50.596;17.648;2023-08-01T10:46:03;20.40;92.20
22173;DHT22;11252;50.596;17.648;2023-08-01T10:48:30;20.40;92.20
22173;DHT22;11252;50.596;17.648;2023-08-01T10:50:58;20.50;92.20
22173;DHT22;11252;50.596;17.648;2023-08-01T10:53:25;20.60;92.20
22173;DHT22;11252;50.596;17.648;2023-08-01T10:55:52;20.60;92.20
22173;DHT22;11252;50.596;17.648;2023-08-01T10:58:19;20.70;92.20
22173;DHT22;11252;50.596;17.648;2023-08-01T11:00:46;20.60;92.20
22173;DHT22;11252;50.596;17.648;2023-08-01T11:03:36;20.60;92.20
22173;DHT22;11252;50.596;17.648;2023-08-01T11:06:04;20.70;92.20
22173;DHT22;11252;50.596;17.648;2023-08-01T11:08:39;20.70;92.20
22173;DHT22;11252;50.596;17.648;2023-08-01T11:11:14;21.00;92.20
22173;DHT22;11252;50.596;17.648;2023-08-01T11:13:50;21.10;92.20
22173;DHT22;11252;50.596;17.648;2023-08-01T11:16:17;21.10;92.20
22173;DHT22;11252;50.596;17.648;2023-08-01T11:18:45;21.10;92.20
22173;DHT22;11252;50.596;17.648;2023-08-01T11:21:12;21.20;92.20
22173;DHT22;11252;50.596;17.648;2023-08-01T11:23:39;21.20;92.20
22173;DHT22;11252;50.596;17.648;2023-08-01T11:26:09;21.20;92.20
22173;DHT22;11252;50.596;17.648;2023-08-01T11:28:36;21.30;92.20
22173;DHT22;11252;50.596;17.648;2023-08-01T11:31:16;21.20;92.20
22173;DHT22;11252;50.596;17.648;2023-08-01T11:33:43;21.20;92.20
22173;DHT22;11252;50.596;17.648;2023-08-01T11:36:23;21.10;92.20
22173;DHT22;11252;50.596;17.648;2023-08-01T11:38:51;21.10;92.20
22173;DHT22;11252;50.596;17.648;2023-08-01T11:41:18;21.10;92.20
22173;DHT22;11252;50.596;17.648;2023-08-01T11:43:45;21.10;92.20
22173;DHT22;11252;50.596;17.648;2023-08-01T11:46:12;21.10;92.20
22173;DHT22;11252;50.596;17.648;2023-08-01T11:48:47;21.10;92.20
22173;DHT22;11252;50.596;17.648;2023-08-01T11:51:14;21.10;92.20
22173;DHT22;11252;50.596;17.648;2023-08-01T11:53:41;21.10;92.20
22173;DHT22;11252;50.596;17.648;2023-08-01T11:56:08;21.20;92.20
22173;DHT22;11252;50.596;17.648;2023-08-01T11:58:46;21.20;92.20
22173;DHT22;11252;50.596;17.648;2023-08-01T12:01:13;21.20;92.20
22173;DHT22;11252;50.596;17.648;2023-08-01T12:03:51;21.30;92.20
22173;DHT22;11252;50.596;17.648;2023-08-01T12:06:22;21.40;92.10
22173;DHT22;11252;50.596;17.648;2023-08-01T12:08:51;21.40;91.90
22173;DHT22;11252;50.596;17.648;2023-08-01T12:11:23;21.40;92.20
22173;DHT22;11252;50.596;17.648;2023-08-01T12:14:07;21.40;92.10
22173;DHT22;11252;50.596;17.648;2023-08-01T12:16:40;21.40;91.70
22173;DHT22;11252;50.596;17.648;2023-08-01T12:19:09;21.40;92.20
22173;DHT22;11252;50.596;17.648;2023-08-01T12:21:39;21.40;92.20
22173;DHT22;11252;50.596;17.648;2023-08-01T12:24:06;21.40;92.10
22173;DHT22;11252;50.596;17.648;2023-08-01T12:26:34;21.50;92.20
22173;DHT22;11252;50.596;17.648;2023-08-01T12:29:01;21.50;91.90
22173;DHT22;11252;50.596;17.648;2023-08-01T12:31:28;21.50;92.00
22173;DHT22;11252;50.596;17.648;2023-08-01T12:33:56;21.40;91.90
22173;DHT22;11252;50.596;17.648;2023-08-01T12:36:25;21.50;92.00
22173;DHT22;11252;50.596;17.648;2023-08-01T12:38:52;21.50;91.70
22173;DHT22;11252;50.596;17.648;2023-08-01T12:41:19;21.60;91.70
22173;DHT22;11252;50.596;17.648;2023-08-01T12:43:46;21.70;91.00
22173;DHT22;11252;50.596;17.648;2023-08-01T12:46:16;21.70;91.10
22173;DHT22;11252;50.596;17.648;2023-08-01T12:48:44;21.70;90.60
22173;DHT22;11252;50.596;17.648;2023-08-01T12:51:11;21.70;90.90
22173;DHT22;11252;50.596;17.648;2023-08-01T12:53:41;21.70;90.30
22173;DHT22;11252;50.596;17.648;2023-08-01T12:56:08;21.70;90.90
22173;DHT22;11252;50.596;17.648;2023-08-01T12:58:35;21.70;90.70
22173;DHT22;11252;50.596;17.648;2023-08-01T13:01:03;21.70;91.00
22173;DHT22;11252;50.596;17.648;2023-08-01T13:03:30;21.70;90.70
22173;DHT22;11252;50.596;17.648;2023-08-01T13:05:59;21.70;90.20
22173;DHT22;11252;50.596;17.648;2023-08-01T13:08:25;21.70;90.20
22173;DHT22;11252;50.596;17.648;2023-08-01T13:10:52;21.70;90.20
22173;DHT22;11252;50.596;17.648;2023-08-01T13:13:19;21.70;90.70
22173;DHT22;11252;50.596;17.648;2023-08-01T13:15:46;21.70;90.20
22173;DHT22;11252;50.596;17.648;2023-08-01T13:18:13;21.70;90.50
22173;DHT22;11252;50.596;17.648;2023-08-01T13:20:40;21.70;90.40
22173;DHT22;11252;50.596;17.648;2023-08-01T13:23:07;21.70;90.90
22173;DHT22;11252;50.596;17.648;2023-08-01T13:25:35;21.70;91.10
22173;DHT22;11252;50.596;17.648;2023-08-01T13:28:02;21.60;91.30
22173;DHT22;11252;50.596;17.648;2023-08-01T13:30:30;21.60;91.20
22173;DHT22;11252;50.596;17.648;2023-08-01T13:32:57;21.70;91.20
22173;DHT22;11252;50.596;17.648;2023-08-01T13:35:24;21.70;91.50
22173;DHT22;11252;50.596;17.648;2023-08-01T13:37:51;21.70;90.80
22173;DHT22;11252;50.596;17.648;2023-08-01T13:40:18;21.70;90.20
22173;DHT22;11252;50.596;17.648;2023-08-01T13:42:45;21.80;90.00
22173;DHT22;11252;50.596;17.648;2023-08-01T13:45:12;21.80;89.50
22173;DHT22;11252;50.596;17.648;2023-08-01T13:47:39;21.80;89.30
22173;DHT22;11252;50.596;17.648;2023-08-01T13:50:06;21.90;88.70
22173;DHT22;11252;50.596;17.648;2023-08-01T13:52:38;21.90;88.40
22173;DHT22;11252;50.596;17.648;2023-08-01T13:55:05;22.00;87.90
22173;DHT22;11252;50.596;17.648;2023-08-01T13:57:34;22.10;88.30
22173;DHT22;11252;50.596;17.648;2023-08-01T14:00:01;22.30;87.30
22173;DHT22;11252;50.596;17.648;2023-08-01T14:02:39;22.40;87.10
22173;DHT22;11252;50.596;17.648;2023-08-01T14:05:07;22.50;86.20
22173;DHT22;11252;50.596;17.648;2023-08-01T14:07:37;22.50;86.80
22173;DHT22;11252;50.596;17.648;2023-08-01T14:10:08;22.50;86.70
22173;DHT22;11252;50.596;17.648;2023-08-01T14:12:36;22.60;86.70
22173;DHT22;11252;50.596;17.648;2023-08-01T14:15:03;22.70;87.10
22173;DHT22;11252;50.596;17.648;2023-08-01T14:17:31;22.70;86.20
22173;DHT22;11252;50.596;17.648;2023-08-01T14:19:58;22.60;85.90
22173;DHT22;11252;50.596;17.648;2023-08-01T14:22:26;22.70;86.80
22173;DHT22;11252;50.596;17.648;2023-08-01T14:24:52;22.60;85.60
22173;DHT22;11252;50.596;17.648;2023-08-01T14:27:19;22.50;86.00
22173;DHT22;11252;50.596;17.648;2023-08-01T14:29:46;22.50;85.80
22173;DHT22;11252;50.596;17.648;2023-08-01T14:32:16;22.40;86.80
22173;DHT22;11252;50.596;17.648;2023-08-01T14:34:42;22.40;86.50
22173;DHT22;11252;50.596;17.648;2023-08-01T14:37:09;22.30;86.50
22173;DHT22;11252;50.596;17.648;2023-08-01T14:39:36;22.20;87.10
22173;DHT22;11252;50.596;17.648;2023-08-01T14:42:03;22.20;87.10
22173;DHT22;11252;50.596;17.648;2023-08-01T14:44:31;22.20;87.10
22173;DHT22;11252;50.596;17.648;2023-08-01T14:46:58;22.20;87.60
22173;DHT22;11252;50.596;17.648;2023-08-01T14:49:25;22.10;87.50
22173;DHT22;11252;50.596;17.648;2023-08-01T14:51:56;22.10;87.60
22173;DHT22;11252;50.596;17.648;2023-08-01T14:54:23;22.10;87.80
22173;DHT22;11252;50.596;17.648;2023-08-01T14:57:06;22.10;87.70
22173;DHT22;11252;50.596;17.648;2023-08-01T14:59:34;22.00;87.90
22173;DHT22;11252;50.596;17.648;2023-08-01T15:02:01;22.00;87.90
22173;DHT22;11252;50.596;17.648;2023-08-01T15:04:28;22.10;88.40
22173;DHT22;11252;50.596;17.648;2023-08-01T15:06:55;22.10;87.70
22173;DHT22;11252;50.596;17.648;2023-08-01T15:09:22;22.10;88.00
22173;DHT22;11252;50.596;17.648;2023-08-01T15:11:49;22.00;87.80
22173;DHT22;11252;50.596;17.648;2023-08-01T15:14:16;22.00;87.90
22173;DHT22;11252;50.596;17.648;2023-08-01T15:16:43;22.00;88.40
22173;DHT22;11252;50.596;17.648;2023-08-01T15:19:10;21.90;88.50
22173;DHT22;11252;50.596;17.648;2023-08-01T15:21:37;21.90;88.70
22173;DHT22;11252;50.596;17.648;2023-08-01T15:24:05;21.90;88.70